createdAt,value
2018-10-17T00:00:57.909Z,10.17
2018-10-17T00:06:01.154Z,9.10
2018-10-17T00:11:04.407Z,9.67
2018-10-17T00:16:07.451Z,10.57
2018-10-17T00:21:10.536Z,11.43
2018-10-17T00:26:13.700Z,10.50
2018-10-17T00:31:16.859Z,10.77
2018-10-17T00:36:19.942Z,10.47
2018-10-17T00:41:23.049Z,10.07
2018-10-17T00:46:26.201Z,13.13
2018-10-17T00:51:29.415Z,13.43
2018-10-17T00:56:32.526Z,12.33
2018-10-17T01:01:35.940Z,13.97
2018-10-17T01:06:39.603Z,10.73
2018-10-17T01:11:43.014Z,10.50
2018-10-17T01:16:46.144Z,10.57
2018-10-17T01:21:49.242Z,12.97
2018-10-17T01:26:52.420Z,10.53
2018-10-17T01:31:55.522Z,11.67
2018-10-17T01:36:58.636Z,14.47
2018-10-17T01:42:01.754Z,11.80
2018-10-17T01:47:05.072Z,11.10
2018-10-17T01:52:08.176Z,11.97
2018-10-17T01:57:11.333Z,13.87
2018-10-17T02:02:14.441Z,16.03
2018-10-17T02:07:17.613Z,13.80
2018-10-17T02:12:20.756Z,13.93
2018-10-17T02:17:23.873Z,14.27
2018-10-17T02:22:27.042Z,15.10
2018-10-17T02:27:30.205Z,14.17
2018-10-17T02:32:33.328Z,14.03
2018-10-17T02:37:36.480Z,12.67
2018-10-17T02:42:39.638Z,12.70
2018-10-17T02:47:42.750Z,14.97
2018-10-17T02:52:45.904Z,14.23
2018-10-17T02:57:49.044Z,13.47
2018-10-17T03:02:52.223Z,14.90
2018-10-17T03:07:55.382Z,15.13
2018-10-17T03:12:58.583Z,13.27
2018-10-17T03:18:01.768Z,15.27
2018-10-17T03:23:05.371Z,18.87
2018-10-17T03:28:08.561Z,19.10
2018-10-17T03:33:11.573Z,20.60
2018-10-17T03:38:14.762Z,20.80
2018-10-17T03:43:17.938Z,22.13
2018-10-17T03:48:20.995Z,19.37
2018-10-17T03:53:24.419Z,17.27
2018-10-17T03:58:27.703Z,19.13
2018-10-17T04:03:30.908Z,17.33
2018-10-17T04:08:34.100Z,22.07
2018-10-17T04:13:37.250Z,17.80
2018-10-17T04:18:40.395Z,14.57
2018-10-17T04:23:43.738Z,13.43
2018-10-17T04:28:47.036Z,16.57
2018-10-17T04:33:50.114Z,13.97
2018-10-17T04:38:53.230Z,18.50
2018-10-17T04:43:56.367Z,14.33
2018-10-17T04:48:59.567Z,41.83
2018-10-17T04:54:02.750Z,16.57
2018-10-17T04:59:06.047Z,18.13
2018-10-17T05:04:09.158Z,16.00
2018-10-17T05:09:12.345Z,17.00
2018-10-17T05:14:15.486Z,15.80
2018-10-17T05:19:18.685Z,17.07
2018-10-17T05:24:21.841Z,14.40
2018-10-17T05:29:24.962Z,20.33
2018-10-17T05:34:28.145Z,15.57
2018-10-17T05:39:31.321Z,18.83
2018-10-17T05:44:34.483Z,19.77
2018-10-17T05:49:37.650Z,21.53
2018-10-17T05:54:40.802Z,21.00
2018-10-17T05:59:43.899Z,21.17
2018-10-17T06:04:47.063Z,19.97
2018-10-17T06:09:50.232Z,17.53
2018-10-17T06:14:53.374Z,19.07
2018-10-17T06:19:56.509Z,20.90
2018-10-17T06:24:59.629Z,27.30
2018-10-17T06:30:02.763Z,23.80
2018-10-17T06:35:06.683Z,21.90
2018-10-17T06:40:10.266Z,20.37
2018-10-17T06:45:13.390Z,20.97
2018-10-17T06:50:16.527Z,21.50
2018-10-17T06:55:19.659Z,24.13
2018-10-17T07:00:22.845Z,19.77
2018-10-17T07:05:25.978Z,18.20
2018-10-17T07:10:29.089Z,23.23
2018-10-17T07:15:32.332Z,22.77
2018-10-17T07:20:35.690Z,19.43
2018-10-17T07:25:38.818Z,26.23
2018-10-17T07:30:41.960Z,23.13
2018-10-17T07:35:45.228Z,21.23
2018-10-17T07:40:48.253Z,25.40
2018-10-17T07:45:51.415Z,22.73
2018-10-17T07:50:54.552Z,29.87
2018-10-17T07:55:57.650Z,30.60
2018-10-17T08:01:00.819Z,27.87
2018-10-17T08:06:04.250Z,23.47
2018-10-17T08:11:07.301Z,32.60
2018-10-17T08:16:10.658Z,27.23
2018-10-17T08:21:13.777Z,32.27
2018-10-17T08:26:16.937Z,31.37
2018-10-17T08:31:20.069Z,25.57
2018-10-17T08:36:23.458Z,31.43
2018-10-17T08:41:26.322Z,28.70
2018-10-17T08:46:29.458Z,30.48
2018-10-17T08:51:32.557Z,27.93
2018-10-17T08:56:35.706Z,28.20
2018-10-17T09:01:38.885Z,24.70
2018-10-17T09:06:41.974Z,28.70
2018-10-17T09:11:45.128Z,30.00
2018-10-17T09:16:48.386Z,28.47
2018-10-17T09:21:51.686Z,29.27
2018-10-17T09:26:54.651Z,26.40
2018-10-17T09:31:57.800Z,26.27
2018-10-17T09:37:00.924Z,24.00
2018-10-17T09:42:04.071Z,23.47
2018-10-17T09:47:07.162Z,23.52
2018-10-17T09:52:10.449Z,27.75
2018-10-17T09:57:13.465Z,26.80
2018-10-17T10:02:16.726Z,24.32
2018-10-17T10:07:19.823Z,20.30
2018-10-17T10:12:22.986Z,21.05
2018-10-17T10:17:26.168Z,23.77
2018-10-17T10:22:29.267Z,22.02
2018-10-17T10:27:32.391Z,23.80
2018-10-17T10:32:35.635Z,20.95
2018-10-17T10:37:38.760Z,20.30
2018-10-17T10:42:41.925Z,17.35
2018-10-17T10:47:45.082Z,19.57
2018-10-17T10:52:48.228Z,19.00
2018-10-17T10:57:51.259Z,18.48
2018-10-17T11:02:54.442Z,18.40
2018-10-17T11:07:57.667Z,19.52
2018-10-17T11:13:00.723Z,26.52
2018-10-17T11:18:03.897Z,16.52
2018-10-17T11:23:07.118Z,17.35
2018-10-17T11:28:10.217Z,18.00
2018-10-17T11:33:13.351Z,15.68
2018-10-17T11:38:16.542Z,16.12
2018-10-17T11:43:19.778Z,17.55
2018-10-17T11:48:22.916Z,20.90
2018-10-17T11:53:26.062Z,17.10
2018-10-17T11:58:29.298Z,14.25
2018-10-17T12:03:32.478Z,22.98
2018-10-17T12:08:35.587Z,12.75
2018-10-17T12:13:38.782Z,15.20
2018-10-17T12:23:54.553Z,16.48
2018-10-17T12:28:57.829Z,16.27
2018-10-17T12:34:00.885Z,11.85
2018-10-17T12:39:06.158Z,17.62
2018-10-17T12:44:09.345Z,13.22
2018-10-17T12:49:12.537Z,16.87
2018-10-17T12:54:15.551Z,13.93
2018-10-17T12:59:18.828Z,10.93
2018-10-17T13:04:21.797Z,13.70
2018-10-17T13:09:24.983Z,13.58
2018-10-17T13:14:28.069Z,20.23
2018-10-17T13:19:31.226Z,12.65
2018-10-17T13:24:34.452Z,14.78
2018-10-17T13:29:37.526Z,11.73
2018-10-17T13:34:40.698Z,11.20
2018-10-17T13:39:43.940Z,10.58
2018-10-17T13:44:47.197Z,12.43
2018-10-17T13:49:50.269Z,13.43
2018-10-17T13:54:53.573Z,14.43
2018-10-17T13:59:57.040Z,15.40
2018-10-17T14:05:00.126Z,8.58
2018-10-17T14:10:03.846Z,9.30
2018-10-17T14:15:07.032Z,15.03
2018-10-17T14:20:10.114Z,9.80
2018-10-17T14:25:13.261Z,13.48
2018-10-17T14:30:16.536Z,9.83
2018-10-17T14:35:19.584Z,8.90
2018-10-17T14:40:22.730Z,10.95
2018-10-17T14:45:25.881Z,11.57
2018-10-17T14:50:28.966Z,13.40
2018-10-17T14:55:32.112Z,8.78
2018-10-17T15:00:35.249Z,9.88
2018-10-17T15:05:38.344Z,8.70
2018-10-17T15:10:41.572Z,10.32
2018-10-17T15:15:45.736Z,13.40
2018-10-17T15:20:48.892Z,14.80
2018-10-17T15:25:52.005Z,18.35
2018-10-17T15:30:55.135Z,12.03
2018-10-17T15:35:58.278Z,11.43
2018-10-17T15:41:01.373Z,9.38
2018-10-17T15:46:04.631Z,8.58
2018-10-17T15:51:07.832Z,11.00
2018-10-17T15:56:10.984Z,13.88
2018-10-17T16:01:14.164Z,8.23
2018-10-17T16:06:17.306Z,11.33
2018-10-17T16:11:20.491Z,10.88
2018-10-17T16:16:23.627Z,16.25
2018-10-17T16:21:26.779Z,10.48
2018-10-17T16:26:29.898Z,10.78
2018-10-17T16:31:34.017Z,13.90
2018-10-17T16:36:36.210Z,11.70
2018-10-17T16:41:39.354Z,12.25
2018-10-17T16:46:42.516Z,13.35
2018-10-17T16:51:45.661Z,10.88
2018-10-17T16:56:48.794Z,13.27
2018-10-17T17:01:51.853Z,18.60
2018-10-17T17:06:55.055Z,16.37
2018-10-17T17:11:58.171Z,9.93
2018-10-17T17:17:01.330Z,17.90
2018-10-17T17:22:04.416Z,11.40
2018-10-17T17:27:07.647Z,13.15
2018-10-17T17:32:10.721Z,20.60
2018-10-17T17:37:13.893Z,10.63
2018-10-17T17:42:16.990Z,12.13
2018-10-17T17:47:20.167Z,12.47
2018-10-17T17:52:23.348Z,8.90
2018-10-17T17:57:26.464Z,9.57
2018-10-17T18:02:29.817Z,15.43
2018-10-17T18:07:32.953Z,11.77
2018-10-17T18:12:36.428Z,13.03
2018-10-17T18:17:39.647Z,15.20
2018-10-17T18:22:42.769Z,15.33
2018-10-17T18:27:46.551Z,10.70
2018-10-17T18:32:49.617Z,13.73
2018-10-17T18:37:53.009Z,12.00
2018-10-17T18:42:56.215Z,11.13
2018-10-17T18:47:59.371Z,13.83
2018-10-17T18:53:02.522Z,12.43
2018-10-17T18:58:05.646Z,14.40
2018-10-17T19:03:08.874Z,14.03
2018-10-17T19:08:12.048Z,17.20
2018-10-17T19:13:15.136Z,20.10
2018-10-17T19:18:18.274Z,17.12
2018-10-17T19:23:21.543Z,15.87
2018-10-17T19:28:24.736Z,17.10
2018-10-17T19:33:28.192Z,17.20
2018-10-17T19:38:31.342Z,14.50
2018-10-17T19:43:34.463Z,14.00
2018-10-17T19:48:37.650Z,13.53
2018-10-17T19:53:40.736Z,11.63
2018-10-17T19:58:43.882Z,12.53
2018-10-17T20:03:46.996Z,12.53
2018-10-17T20:08:50.184Z,11.63
2018-10-17T20:13:53.252Z,13.80
2018-10-17T20:18:56.352Z,14.57
2018-10-17T20:23:59.544Z,16.50
2018-10-17T20:29:02.735Z,12.90
2018-10-17T20:34:05.880Z,13.93
2018-10-17T20:39:13.595Z,11.80
2018-10-17T20:44:20.995Z,12.47
2018-10-17T20:49:24.142Z,21.15
2018-10-17T20:54:27.305Z,17.73
2018-10-17T20:59:30.650Z,14.30
2018-10-17T21:04:33.822Z,12.70
2018-10-17T21:09:36.954Z,12.20
2018-10-17T21:14:40.104Z,11.03
2018-10-17T21:19:43.266Z,11.53
2018-10-17T21:24:46.393Z,12.43
2018-10-17T21:29:49.549Z,12.50
2018-10-17T21:34:52.742Z,13.30
2018-10-17T21:39:55.977Z,12.87
2018-10-17T21:44:59.153Z,12.70
2018-10-17T21:50:02.460Z,13.00
2018-10-17T21:55:05.786Z,12.53
2018-10-17T22:00:09.883Z,11.17
2018-10-17T22:05:13.030Z,12.53
2018-10-17T22:10:16.179Z,11.60
2018-10-17T22:15:19.325Z,12.53
2018-10-17T22:20:22.548Z,11.73
2018-10-17T22:25:25.699Z,13.17
2018-10-17T22:30:29.002Z,13.57
2018-10-17T22:35:32.188Z,14.43
2018-10-17T22:40:35.360Z,11.53
2018-10-17T22:45:38.509Z,13.90
2018-10-17T22:50:41.625Z,10.73
2018-10-17T22:55:44.772Z,11.63
2018-10-17T23:00:48.185Z,11.30
2018-10-17T23:05:51.326Z,13.18
2018-10-17T23:10:54.545Z,12.20
2018-10-17T23:15:57.710Z,12.43
2018-10-17T23:21:00.875Z,13.57
2018-10-17T23:26:04.073Z,13.80
2018-10-17T23:31:07.127Z,14.50
2018-10-17T23:36:10.257Z,11.23
2018-10-17T23:41:13.364Z,12.83
2018-10-17T23:46:16.533Z,13.87
2018-10-17T23:51:19.659Z,12.17
2018-10-17T23:56:22.826Z,13.63
